createdAt,value
2022-12-03T00:00:27.743Z,0.60
2022-12-03T00:02:56.206Z,0.60
2022-12-03T00:05:23.235Z,0.60
2022-12-03T00:07:50.335Z,0.60
2022-12-03T00:10:17.522Z,0.60
2022-12-03T00:12:44.470Z,0.60
2022-12-03T00:15:11.528Z,0.60
2022-12-03T00:17:38.510Z,0.60
2022-12-03T00:20:06.539Z,0.50
2022-12-03T00:22:33.472Z,0.50
2022-12-03T00:25:00.716Z,0.60
2022-12-03T00:27:27.621Z,0.60
2022-12-03T00:29:54.614Z,0.60
2022-12-03T00:32:21.564Z,0.60
2022-12-03T00:34:48.497Z,0.70
2022-12-03T00:37:15.501Z,0.70
2022-12-03T00:39:42.472Z,0.70
2022-12-03T00:42:09.445Z,0.70
2022-12-03T00:44:36.385Z,0.60
2022-12-03T00:47:03.390Z,0.60
2022-12-03T00:49:30.521Z,0.60
2022-12-03T00:51:57.448Z,0.60
2022-12-03T00:54:28.493Z,0.60
2022-12-03T00:56:58.692Z,0.50
2022-12-03T00:59:25.677Z,0.50
2022-12-03T01:01:52.749Z,0.50
2022-12-03T01:04:19.807Z,0.50
2022-12-03T01:06:46.845Z,0.50
2022-12-03T01:09:13.787Z,0.60
2022-12-03T01:11:41.516Z,0.60
2022-12-03T01:14:09.773Z,0.60
2022-12-03T01:16:36.894Z,0.60
2022-12-03T01:19:04.200Z,0.70
2022-12-03T01:21:31.262Z,0.60
2022-12-03T01:23:58.246Z,0.70
2022-12-03T01:26:25.668Z,0.70
2022-12-03T01:28:52.986Z,0.70
2022-12-03T01:31:38.937Z,0.70
2022-12-03T01:34:05.877Z,0.60
2022-12-03T01:36:34.401Z,0.70
2022-12-03T01:39:01.706Z,0.70
2022-12-03T01:41:28.697Z,0.60
2022-12-03T01:43:55.643Z,0.60
2022-12-03T01:46:23.435Z,0.50
2022-12-03T01:48:50.865Z,0.50
2022-12-03T01:51:18.387Z,0.50
2022-12-03T01:53:45.378Z,0.40
2022-12-03T01:56:12.774Z,0.50
2022-12-03T01:58:39.676Z,0.40
2022-12-03T02:01:07.186Z,0.40
2022-12-03T02:03:35.396Z,0.30
2022-12-03T02:06:02.371Z,0.30
2022-12-03T02:08:30.070Z,0.30
2022-12-03T02:10:58.000Z,0.30
2022-12-03T02:13:24.985Z,0.30
2022-12-03T02:15:51.941Z,0.30
2022-12-03T02:18:18.926Z,0.30
2022-12-03T02:21:06.103Z,0.30
2022-12-03T02:23:41.914Z,0.20
2022-12-03T02:26:08.945Z,0.20
2022-12-03T02:28:36.299Z,0.30
2022-12-03T02:31:05.332Z,0.20
2022-12-03T02:33:32.347Z,0.20
2022-12-03T02:36:03.636Z,0.20
2022-12-03T02:38:31.157Z,0.20
2022-12-03T02:40:58.628Z,0.20
2022-12-03T02:43:25.661Z,0.10
2022-12-03T02:45:53.564Z,0.20
2022-12-03T02:48:24.096Z,0.10
2022-12-03T02:50:52.071Z,0.20
2022-12-03T02:53:23.330Z,0.10
2022-12-03T02:55:50.622Z,0.10
2022-12-03T02:58:17.565Z,0.20
2022-12-03T03:00:44.587Z,0.10
2022-12-03T03:03:11.668Z,0.10
2022-12-03T03:05:38.821Z,0.00
2022-12-03T03:08:06.064Z,0.00
2022-12-03T03:10:33.359Z,0.00
2022-12-03T03:13:00.316Z,-0.10
2022-12-03T03:15:27.249Z,0.00
2022-12-03T03:17:54.166Z,0.00
2022-12-03T03:20:21.112Z,0.00
2022-12-03T03:22:48.520Z,0.00
2022-12-03T03:25:16.834Z,0.00
2022-12-03T03:27:43.784Z,-0.10
2022-12-03T03:30:10.951Z,-0.10
2022-12-03T03:32:38.251Z,-0.20
2022-12-03T03:35:05.437Z,-0.20
2022-12-03T03:37:32.405Z,-0.20
2022-12-03T03:39:59.393Z,-0.20
2022-12-03T03:42:26.293Z,-0.20
2022-12-03T03:44:53.692Z,-0.20
2022-12-03T03:47:20.915Z,-0.20
2022-12-03T03:49:50.700Z,-0.20
2022-12-03T03:52:18.239Z,-0.10
2022-12-03T03:54:45.387Z,-0.10
2022-12-03T03:57:12.388Z,-0.10
2022-12-03T03:59:39.324Z,-0.10
2022-12-03T04:02:07.181Z,-0.10
2022-12-03T04:04:35.098Z,-0.10
2022-12-03T04:07:02.186Z,-0.10
2022-12-03T04:09:29.132Z,-0.10
2022-12-03T04:12:16.024Z,0.00
2022-12-03T04:14:43.155Z,-0.20
2022-12-03T04:17:10.141Z,-0.20
2022-12-03T04:19:37.087Z,-0.10
2022-12-03T04:22:22.466Z,-0.20
2022-12-03T04:24:49.410Z,-0.10
2022-12-03T04:27:42.382Z,-0.10
2022-12-03T04:30:09.475Z,-0.10
2022-12-03T04:32:54.812Z,-0.10
2022-12-03T04:35:40.365Z,-0.10
2022-12-03T04:38:12.538Z,-0.20
2022-12-03T04:40:58.015Z,-0.20
2022-12-03T04:43:25.067Z,-0.20
2022-12-03T04:45:52.010Z,-0.20
2022-12-03T04:48:18.976Z,-0.10
2022-12-03T04:50:45.860Z,-0.10
2022-12-03T04:53:12.848Z,-0.20
2022-12-03T04:55:39.746Z,-0.20
2022-12-03T04:58:06.850Z,-0.20
2022-12-03T05:00:33.715Z,-0.20
2022-12-03T05:03:00.800Z,-0.20
2022-12-03T05:05:27.827Z,-0.20
2022-12-03T05:07:54.812Z,-0.10
2022-12-03T05:10:21.878Z,-0.10
2022-12-03T05:12:48.941Z,-0.10
2022-12-03T05:15:15.873Z,-0.10
2022-12-03T05:17:42.864Z,-0.20
2022-12-03T05:20:28.607Z,-0.20
2022-12-03T05:22:55.632Z,-0.30
2022-12-03T05:25:22.605Z,-0.20
2022-12-03T05:27:49.644Z,-0.30
2022-12-03T05:30:16.696Z,-0.30
2022-12-03T05:32:43.642Z,-0.30
2022-12-03T05:35:10.715Z,-0.30
2022-12-03T05:37:37.820Z,-0.30
2022-12-03T05:40:05.107Z,-0.30
2022-12-03T05:42:50.978Z,-0.30
2022-12-03T05:45:18.787Z,-0.20
2022-12-03T05:47:45.710Z,-0.30
2022-12-03T05:50:12.697Z,-0.20
2022-12-03T05:52:39.585Z,-0.30
2022-12-03T05:55:07.055Z,-0.30
2022-12-03T05:57:33.991Z,-0.30
2022-12-03T06:00:00.969Z,-0.30
2022-12-03T06:02:28.096Z,-0.30
2022-12-03T06:04:55.495Z,-0.30
2022-12-03T06:07:22.688Z,-0.30
2022-12-03T06:09:49.639Z,-0.30
2022-12-03T06:12:16.778Z,-0.30
2022-12-03T06:14:43.631Z,-0.30
2022-12-03T06:17:10.582Z,-0.30
2022-12-03T06:19:37.569Z,-0.30
2022-12-03T06:22:04.505Z,-0.30
2022-12-03T06:24:31.450Z,-0.20
2022-12-03T06:26:58.406Z,-0.20
2022-12-03T06:29:25.323Z,-0.20
2022-12-03T06:31:52.245Z,-0.20
2022-12-03T06:34:19.260Z,-0.20
2022-12-03T06:36:47.044Z,-0.20
2022-12-03T06:39:14.011Z,-0.20
2022-12-03T06:41:40.873Z,-0.10
2022-12-03T06:44:07.894Z,-0.20
2022-12-03T06:46:34.893Z,-0.10
2022-12-03T06:49:01.844Z,-0.10
2022-12-03T06:51:28.857Z,0.00
2022-12-03T06:53:55.785Z,0.00
2022-12-03T06:56:22.874Z,0.00
2022-12-03T06:58:49.880Z,0.00
2022-12-03T07:01:16.830Z,0.00
2022-12-03T07:03:43.792Z,0.00
2022-12-03T07:06:10.731Z,-0.10
2022-12-03T07:08:37.659Z,-0.10
2022-12-03T07:11:04.621Z,-0.10
2022-12-03T07:13:31.655Z,-0.10
2022-12-03T07:15:58.742Z,-0.10
2022-12-03T07:18:25.765Z,-0.10
2022-12-03T07:20:52.805Z,-0.10
2022-12-03T07:23:20.063Z,-0.10
2022-12-03T07:25:47.561Z,-0.10
2022-12-03T07:28:14.479Z,-0.10
2022-12-03T07:30:41.434Z,-0.10
2022-12-03T07:33:08.343Z,-0.10
2022-12-03T07:35:35.307Z,-0.10
2022-12-03T07:38:02.244Z,0.00
2022-12-03T07:40:29.123Z,0.00
2022-12-03T07:42:56.165Z,0.00
2022-12-03T07:45:23.181Z,0.00
2022-12-03T07:47:50.052Z,0.00
2022-12-03T07:50:17.685Z,0.00
2022-12-03T07:52:44.539Z,0.00
2022-12-03T07:55:11.798Z,0.00
2022-12-03T07:57:38.735Z,0.00
2022-12-03T08:00:06.205Z,0.10
2022-12-03T08:02:33.103Z,0.10
2022-12-03T08:05:00.179Z,0.10
2022-12-03T08:07:27.107Z,0.10
2022-12-03T08:09:55.155Z,0.20
2022-12-03T08:12:40.047Z,0.20
2022-12-03T08:15:17.760Z,0.20
2022-12-03T08:17:45.626Z,0.20
2022-12-03T08:20:16.367Z,0.20
2022-12-03T08:22:43.532Z,0.20
2022-12-03T08:25:20.898Z,0.30
2022-12-03T08:27:47.849Z,0.30
2022-12-03T08:30:15.206Z,0.30
2022-12-03T08:32:42.167Z,0.30
2022-12-03T08:35:21.646Z,0.30
2022-12-03T08:37:49.346Z,0.30
2022-12-03T08:40:23.277Z,0.30
2022-12-03T08:42:50.358Z,0.30
2022-12-03T08:45:20.017Z,0.40
2022-12-03T08:47:46.962Z,0.40
2022-12-03T08:50:30.495Z,0.50
2022-12-03T08:53:20.268Z,0.60
2022-12-03T08:55:47.963Z,0.50
2022-12-03T08:58:24.083Z,0.60
2022-12-03T09:00:52.712Z,0.60
2022-12-03T09:03:20.039Z,0.60
2022-12-03T09:05:46.926Z,0.60
2022-12-03T09:08:13.926Z,0.60
2022-12-03T09:10:40.981Z,0.60
2022-12-03T09:13:08.025Z,0.60
2022-12-03T09:15:35.074Z,0.60
2022-12-03T09:18:01.976Z,0.60
2022-12-03T09:20:29.053Z,0.60
2022-12-03T09:22:56.423Z,0.60
2022-12-03T09:25:23.324Z,0.70
2022-12-03T09:27:50.358Z,0.70
2022-12-03T09:30:17.477Z,0.80
2022-12-03T09:32:44.356Z,0.80
2022-12-03T09:35:11.282Z,0.80
2022-12-03T09:37:38.212Z,0.80
2022-12-03T09:40:05.873Z,0.90
2022-12-03T09:42:33.248Z,0.90
2022-12-03T09:45:00.365Z,1.00
2022-12-03T09:47:27.310Z,1.00
2022-12-03T09:49:54.627Z,1.10
2022-12-03T09:52:24.071Z,1.10
2022-12-03T09:54:51.894Z,1.10
2022-12-03T09:57:18.887Z,1.10
2022-12-03T09:59:45.846Z,1.20
2022-12-03T10:02:22.605Z,1.20
2022-12-03T10:04:49.610Z,1.20
2022-12-03T10:07:16.624Z,1.20
2022-12-03T10:09:43.549Z,1.20
2022-12-03T10:12:13.295Z,1.20
2022-12-03T10:14:41.001Z,1.30
2022-12-03T10:17:08.159Z,1.30
2022-12-03T10:19:35.867Z,1.30
2022-12-03T10:22:02.892Z,1.40
2022-12-03T10:24:30.651Z,1.40
2022-12-03T10:26:58.327Z,1.40
2022-12-03T10:29:33.571Z,1.40
2022-12-03T10:32:08.055Z,1.40
2022-12-03T10:34:35.948Z,1.40
2022-12-03T10:37:08.707Z,1.40
2022-12-03T10:39:55.731Z,1.50
2022-12-03T10:42:23.712Z,1.50
2022-12-03T10:45:02.843Z,1.50
2022-12-03T10:47:30.406Z,1.50
2022-12-03T10:50:01.501Z,1.40
2022-12-03T10:52:29.018Z,1.40
2022-12-03T10:54:56.276Z,1.40
2022-12-03T10:57:23.506Z,1.40
2022-12-03T10:59:50.465Z,1.40
2022-12-03T11:02:22.129Z,1.50
2022-12-03T11:04:49.167Z,1.50
2022-12-03T11:07:17.026Z,1.50
2022-12-03T11:09:46.423Z,1.50
2022-12-03T11:12:18.751Z,1.60
2022-12-03T11:14:55.128Z,1.60
2022-12-03T11:17:25.296Z,1.60
2022-12-03T11:19:52.384Z,1.60
2022-12-03T11:22:26.872Z,1.60
2022-12-03T11:25:12.544Z,1.60
2022-12-03T11:27:40.201Z,1.50
2022-12-03T11:30:09.202Z,1.60
2022-12-03T11:32:38.964Z,1.60
2022-12-03T11:35:12.731Z,1.60
2022-12-03T11:37:39.764Z,1.50
2022-12-03T11:40:09.479Z,1.60
2022-12-03T11:42:39.698Z,1.60
2022-12-03T11:45:06.669Z,1.60
2022-12-03T11:47:34.630Z,1.60
2022-12-03T11:50:01.662Z,1.60
2022-12-03T11:52:28.726Z,1.60
2022-12-03T11:55:14.498Z,1.60
2022-12-03T11:57:43.287Z,1.60
2022-12-03T12:00:13.179Z,1.70
2022-12-03T12:02:42.010Z,1.70
2022-12-03T12:05:15.751Z,1.80
2022-12-03T12:07:42.775Z,1.90
2022-12-03T12:10:10.050Z,1.90
2022-12-03T12:12:38.081Z,2.00
2022-12-03T12:15:23.778Z,2.10
2022-12-03T12:17:50.754Z,2.10
2022-12-03T12:20:20.308Z,2.10
2022-12-03T12:22:47.256Z,2.00
2022-12-03T12:25:32.834Z,2.00
2022-12-03T12:28:01.129Z,2.00
2022-12-03T12:30:28.156Z,1.90
2022-12-03T12:33:07.500Z,1.90
2022-12-03T12:35:34.643Z,1.90
2022-12-03T12:38:07.628Z,1.90
2022-12-03T12:40:35.393Z,1.80
2022-12-03T12:43:23.742Z,1.80
2022-12-03T12:45:52.733Z,1.80
2022-12-03T12:48:19.637Z,1.70
2022-12-03T12:50:47.088Z,1.70
2022-12-03T12:53:19.818Z,1.70
2022-12-03T12:55:47.030Z,1.70
2022-12-03T12:58:18.012Z,1.60
2022-12-03T13:00:54.943Z,1.60
2022-12-03T13:03:23.764Z,1.70
2022-12-03T13:05:51.080Z,1.60
2022-12-03T13:08:21.078Z,1.50
2022-12-03T13:10:48.207Z,1.50
2022-12-03T13:13:16.186Z,1.50
2022-12-03T13:15:49.518Z,1.40
2022-12-03T13:18:27.006Z,1.40
2022-12-03T13:20:54.497Z,1.40
2022-12-03T13:23:28.776Z,1.40
2022-12-03T13:26:03.738Z,1.40
2022-12-03T13:28:36.760Z,1.40
2022-12-03T13:31:15.559Z,1.40
2022-12-03T13:33:42.652Z,1.40
2022-12-03T13:36:27.909Z,1.30
2022-12-03T13:38:54.984Z,1.30
2022-12-03T13:41:40.440Z,1.30
2022-12-03T13:44:13.981Z,1.30
2022-12-03T13:46:41.004Z,1.30
2022-12-03T13:49:14.428Z,1.30
2022-12-03T13:51:42.863Z,1.30
2022-12-03T13:54:16.025Z,1.30
2022-12-03T13:56:43.219Z,1.30
2022-12-03T13:59:10.333Z,1.30
2022-12-03T14:01:37.356Z,1.30
2022-12-03T14:04:04.450Z,1.20
2022-12-03T14:06:33.047Z,1.30
2022-12-03T14:09:00.144Z,1.30
2022-12-03T14:11:45.791Z,1.30
2022-12-03T14:14:12.780Z,1.30
2022-12-03T14:16:39.784Z,1.30
2022-12-03T14:19:06.789Z,1.40
2022-12-03T14:21:33.707Z,1.30
2022-12-03T14:24:00.597Z,1.30
2022-12-03T14:26:27.650Z,1.30
2022-12-03T14:28:54.569Z,1.40
2022-12-03T14:31:21.558Z,1.40
2022-12-03T14:33:48.610Z,1.30
2022-12-03T14:36:15.530Z,1.30
2022-12-03T14:38:42.492Z,1.30
2022-12-03T14:41:29.403Z,1.30
2022-12-03T14:43:56.266Z,1.30
2022-12-03T14:46:23.410Z,1.30
2022-12-03T14:48:50.323Z,1.30
2022-12-03T14:51:17.357Z,1.30
2022-12-03T14:53:44.239Z,1.30
2022-12-03T14:56:11.164Z,1.30
2022-12-03T14:58:38.520Z,1.20
2022-12-03T15:01:05.734Z,1.30
2022-12-03T15:03:32.631Z,1.20
2022-12-03T15:06:00.726Z,1.20
2022-12-03T15:08:28.674Z,1.20
2022-12-03T15:10:55.621Z,1.20
2022-12-03T15:13:22.576Z,1.20
2022-12-03T15:15:49.696Z,1.20
2022-12-03T15:18:16.640Z,1.30
2022-12-03T15:20:43.592Z,1.30
2022-12-03T15:23:14.290Z,1.30
2022-12-03T15:25:41.797Z,1.30
2022-12-03T15:28:08.949Z,1.20
2022-12-03T15:30:35.980Z,1.30
2022-12-03T15:33:03.032Z,1.20
2022-12-03T15:35:30.210Z,1.20
2022-12-03T15:37:57.224Z,1.20
2022-12-03T15:40:24.742Z,1.20
2022-12-03T15:42:51.732Z,1.20
2022-12-03T15:45:18.603Z,1.20
2022-12-03T15:47:45.621Z,1.20
2022-12-03T15:50:14.111Z,1.30
2022-12-03T15:52:41.066Z,1.30
2022-12-03T15:55:08.202Z,1.30
2022-12-03T15:57:35.151Z,1.30
2022-12-03T16:00:02.051Z,1.30
2022-12-03T16:02:39.516Z,1.30
2022-12-03T16:05:07.551Z,1.30
2022-12-03T16:07:34.545Z,1.30
2022-12-03T16:10:02.168Z,1.30
2022-12-03T16:12:29.112Z,1.20
2022-12-03T16:14:56.276Z,1.30
2022-12-03T16:17:23.247Z,1.30
2022-12-03T16:19:50.285Z,1.30
2022-12-03T16:22:17.279Z,1.30
2022-12-03T16:24:44.253Z,1.30
2022-12-03T16:27:11.208Z,1.30
2022-12-03T16:29:38.235Z,1.30
2022-12-03T16:32:05.181Z,1.30
2022-12-03T16:34:32.135Z,1.40
2022-12-03T16:36:59.078Z,1.30
2022-12-03T16:39:26.018Z,1.40
2022-12-03T16:41:53.068Z,1.40
2022-12-03T16:44:31.409Z,1.30
2022-12-03T16:46:59.352Z,1.30
2022-12-03T16:49:26.297Z,1.30
2022-12-03T16:51:53.348Z,1.30
2022-12-03T16:54:20.303Z,1.30
2022-12-03T16:56:47.238Z,1.30
2022-12-03T16:59:14.253Z,1.30
2022-12-03T17:01:41.402Z,1.30
2022-12-03T17:04:08.485Z,1.30
2022-12-03T17:06:35.393Z,1.30
2022-12-03T17:09:02.268Z,1.30
2022-12-03T17:11:29.248Z,1.30
2022-12-03T17:13:56.333Z,1.30
2022-12-03T17:16:23.983Z,1.30
2022-12-03T17:18:51.039Z,1.30
2022-12-03T17:21:18.123Z,1.30
2022-12-03T17:23:48.759Z,1.30
2022-12-03T17:26:15.745Z,1.30
2022-12-03T17:28:42.754Z,1.30
2022-12-03T17:31:09.999Z,1.40
2022-12-03T17:33:37.214Z,1.30
2022-12-03T17:36:04.539Z,1.30
2022-12-03T17:38:37.174Z,1.30
2022-12-03T17:41:07.389Z,1.30
2022-12-03T17:43:34.367Z,1.30
2022-12-03T17:46:01.424Z,1.40
2022-12-03T17:48:31.220Z,1.40
2022-12-03T17:50:58.370Z,1.30
2022-12-03T17:53:25.335Z,1.40
2022-12-03T17:55:52.361Z,1.40
2022-12-03T17:58:19.431Z,1.40
2022-12-03T18:00:46.459Z,1.30
2022-12-03T18:03:13.405Z,1.30
2022-12-03T18:05:40.456Z,1.30
2022-12-03T18:08:07.457Z,1.30
2022-12-03T18:10:34.572Z,1.30
2022-12-03T18:13:02.416Z,1.30
2022-12-03T18:15:29.774Z,1.30
2022-12-03T18:17:56.846Z,1.40
2022-12-03T18:20:23.969Z,1.40
2022-12-03T18:22:51.349Z,1.40
2022-12-03T18:25:18.334Z,1.30
2022-12-03T18:27:45.831Z,1.30
2022-12-03T18:30:12.820Z,1.30
2022-12-03T18:32:39.820Z,1.20
2022-12-03T18:35:06.887Z,1.20
2022-12-03T18:37:33.874Z,1.30
2022-12-03T18:40:00.938Z,1.30
2022-12-03T18:42:27.970Z,1.30
2022-12-03T18:44:55.186Z,1.30
2022-12-03T18:47:23.161Z,1.30
2022-12-03T18:49:50.280Z,1.30
2022-12-03T18:52:18.059Z,1.30
2022-12-03T18:54:45.181Z,1.30
2022-12-03T18:57:12.150Z,1.30
2022-12-03T18:59:39.115Z,1.30
2022-12-03T19:02:06.633Z,1.20
2022-12-03T19:04:33.623Z,1.20
2022-12-03T19:07:00.540Z,1.20
2022-12-03T19:09:27.484Z,1.20
2022-12-03T19:11:54.430Z,1.30
2022-12-03T19:14:21.312Z,1.20
2022-12-03T19:16:50.127Z,1.30
2022-12-03T19:19:17.220Z,1.20
2022-12-03T19:21:44.116Z,1.20
2022-12-03T19:24:26.261Z,1.20
2022-12-03T19:26:55.422Z,1.20
2022-12-03T19:29:22.916Z,1.20
2022-12-03T19:31:50.731Z,1.30
2022-12-03T19:34:17.939Z,1.30
2022-12-03T19:36:44.985Z,1.40
2022-12-03T19:39:12.036Z,1.40
2022-12-03T19:41:39.493Z,1.30
2022-12-03T19:44:10.863Z,1.40
2022-12-03T19:46:38.107Z,1.40
2022-12-03T19:49:06.247Z,1.40
2022-12-03T19:51:35.136Z,1.40
2022-12-03T19:54:05.927Z,1.40
2022-12-03T19:56:32.858Z,1.40
2022-12-03T19:58:59.904Z,1.40
2022-12-03T20:01:27.883Z,1.40
2022-12-03T20:03:55.410Z,1.40
2022-12-03T20:06:26.147Z,1.40
2022-12-03T20:09:00.413Z,1.40
2022-12-03T20:11:28.174Z,1.40
2022-12-03T20:13:55.851Z,1.40
2022-12-03T20:16:22.922Z,1.40
2022-12-03T20:18:50.193Z,1.40
2022-12-03T20:21:19.599Z,1.40
2022-12-03T20:23:46.957Z,1.40
2022-12-03T20:26:14.836Z,1.40
2022-12-03T20:28:41.870Z,1.40
2022-12-03T20:31:10.965Z,1.40
2022-12-03T20:33:38.033Z,1.40
2022-12-03T20:36:05.058Z,1.40
2022-12-03T20:38:32.108Z,1.40
2022-12-03T20:41:02.539Z,1.40
2022-12-03T20:43:29.529Z,1.40
2022-12-03T20:46:02.389Z,1.40
2022-12-03T20:48:29.720Z,1.40
2022-12-03T20:50:56.708Z,1.40
2022-12-03T20:53:25.252Z,1.40
2022-12-03T20:55:56.393Z,1.40
2022-12-03T20:58:23.366Z,1.40
2022-12-03T21:00:50.349Z,1.40
2022-12-03T21:03:17.326Z,1.40
2022-12-03T21:05:44.272Z,1.40
2022-12-03T21:08:11.529Z,1.40
2022-12-03T21:10:45.343Z,1.40
2022-12-03T21:13:13.100Z,1.40
2022-12-03T21:15:40.301Z,1.50
2022-12-03T21:18:07.874Z,1.50
2022-12-03T21:20:39.102Z,1.50
2022-12-03T21:23:06.054Z,1.50
2022-12-03T21:25:34.031Z,1.40
2022-12-03T21:28:01.227Z,1.40
2022-12-03T21:30:28.278Z,1.50
2022-12-03T21:32:55.219Z,1.40
2022-12-03T21:35:22.175Z,1.40
2022-12-03T21:37:49.330Z,1.40
2022-12-03T21:40:16.284Z,1.40
2022-12-03T21:42:43.264Z,1.40
2022-12-03T21:45:10.297Z,1.50
2022-12-03T21:47:37.861Z,1.40
2022-12-03T21:50:08.056Z,1.40
2022-12-03T21:52:35.314Z,1.40
2022-12-03T21:55:02.280Z,1.40
2022-12-03T21:57:29.209Z,1.30
2022-12-03T21:59:56.312Z,1.30
2022-12-03T22:02:23.421Z,1.40
2022-12-03T22:04:50.601Z,1.30
2022-12-03T22:07:17.627Z,1.30
2022-12-03T22:09:44.636Z,1.30
2022-12-03T22:12:11.586Z,1.30
2022-12-03T22:14:38.575Z,1.30
2022-12-03T22:17:05.470Z,1.20
2022-12-03T22:19:32.433Z,1.30
2022-12-03T22:21:59.441Z,1.30
2022-12-03T22:24:26.513Z,1.30
2022-12-03T22:26:54.860Z,1.30
2022-12-03T22:29:22.039Z,1.30
2022-12-03T22:31:48.989Z,1.30
2022-12-03T22:34:15.927Z,1.30
2022-12-03T22:36:43.021Z,1.40
2022-12-03T22:39:10.016Z,1.30
2022-12-03T22:41:37.088Z,1.30
2022-12-03T22:44:03.974Z,1.30
2022-12-03T22:46:31.017Z,1.40
2022-12-03T22:49:00.556Z,1.40
2022-12-03T22:51:32.023Z,1.40
2022-12-03T22:53:59.795Z,1.40
2022-12-03T22:56:27.047Z,1.40
2022-12-03T22:58:54.012Z,1.40
2022-12-03T23:01:21.760Z,1.40
2022-12-03T23:03:48.804Z,1.40
2022-12-03T23:06:15.926Z,1.40
2022-12-03T23:08:42.893Z,1.40
2022-12-03T23:11:09.928Z,1.40
2022-12-03T23:13:36.988Z,1.40
2022-12-03T23:16:04.146Z,1.40
2022-12-03T23:18:31.311Z,1.40
2022-12-03T23:20:58.348Z,1.40
2022-12-03T23:23:25.903Z,1.40
2022-12-03T23:26:11.888Z,1.30
2022-12-03T23:28:39.275Z,1.30
2022-12-03T23:31:06.424Z,1.40
2022-12-03T23:33:38.190Z,1.40
2022-12-03T23:36:06.185Z,1.40
2022-12-03T23:38:33.075Z,1.40
2022-12-03T23:41:06.386Z,1.40
2022-12-03T23:43:33.312Z,1.40
2022-12-03T23:46:07.375Z,1.40
2022-12-03T23:48:34.304Z,1.40
2022-12-03T23:51:08.082Z,1.40
2022-12-03T23:53:35.535Z,1.40
2022-12-03T23:56:09.091Z,1.40
2022-12-03T23:58:36.086Z,1.40
